Terminal Aerodrome Forecast
Issued by NWS

Home | Current Version | Previous Version | Text Only | Print | Product List | Glossary On
Versions: 1 2 3 4 5 6 7 8 9 10 11 12 13 14 15 16
000
FTUS46 KMTR 171700
TAFOAK
TAF
KOAK 171736Z 1718/1824 23004KT P6SM FEW015
     FM172000 23012KT P6SM FEW012 SCT200
     FM180300 23008KT P6SM SCT015 BKN100
     FM180600 22006KT P6SM BKN015 BKN050 PROB30 1810/1812 -RA
     FM181200 18010KT P6SM BKN020 OVC050 PROB30 1812/1820 -RA
     FM182000 24010KT P6SM SCT025 BKN050 PROB30 1820/1824 -RA
      BKN025=

USA.gov is the U.S. government's official web portal to all federal, state and local government web resources and services.